sensor_id;sensor_type;location;lat;lon;timestamp;P1;durP1;ratioP1;P2;durP2;ratioP2
31537;SDS011;18147;51.952;6.146;2023-04-03T00:02:25;7.53;;;2.38;;
31537;SDS011;18147;51.952;6.146;2023-04-03T00:04:51;5.28;;;2.83;;
31537;SDS011;18147;51.952;6.146;2023-04-03T00:07:19;3.25;;;2.20;;
31537;SDS011;18147;51.952;6.146;2023-04-03T00:09:44;7.50;;;3.63;;
31537;SDS011;18147;51.952;6.146;2023-04-03T00:12:10;6.47;;;2.72;;
31537;SDS011;18147;51.952;6.146;2023-04-03T00:14:36;7.07;;;2.67;;
31537;SDS011;18147;51.952;6.146;2023-04-03T00:17:02;5.63;;;2.65;;
31537;SDS011;18147;51.952;6.146;2023-04-03T00:19:27;6.10;;;3.03;;
31537;SDS011;18147;51.952;6.146;2023-04-03T00:22:05;7.10;;;3.10;;
31537;SDS011;18147;51.952;6.146;2023-04-03T00:24:30;4.85;;;2.70;;
31537;SDS011;18147;51.952;6.146;2023-04-03T00:26:56;5.32;;;3.10;;
31537;SDS011;18147;51.952;6.146;2023-04-03T00:29:27;6.45;;;2.75;;
31537;SDS011;18147;51.952;6.146;2023-04-03T00:31:53;8.13;;;2.53;;
31537;SDS011;18147;51.952;6.146;2023-04-03T00:34:18;5.68;;;2.58;;
31537;SDS011;18147;51.952;6.146;2023-04-03T00:36:45;6.18;;;3.45;;
31537;SDS011;18147;51.952;6.146;2023-04-03T00:39:10;6.05;;;2.17;;
31537;SDS011;18147;51.952;6.146;2023-04-03T00:41:35;8.00;;;2.60;;
31537;SDS011;18147;51.952;6.146;2023-04-03T00:44:17;5.30;;;2.53;;
31537;SDS011;18147;51.952;6.146;2023-04-03T00:46:47;3.63;;;2.15;;
31537;SDS011;18147;51.952;6.146;2023-04-03T00:49:13;6.93;;;2.38;;
31537;SDS011;18147;51.952;6.146;2023-04-03T00:51:38;7.47;;;2.60;;
31537;SDS011;18147;51.952;6.146;2023-04-03T00:54:05;10.65;;;2.58;;
31537;SDS011;18147;51.952;6.146;2023-04-03T00:56:33;8.27;;;2.95;;
31537;SDS011;18147;51.952;6.146;2023-04-03T00:59:02;4.97;;;2.17;;
31537;SDS011;18147;51.952;6.146;2023-04-03T01:01:31;9.90;;;2.80;;
31537;SDS011;18147;51.952;6.146;2023-04-03T01:04:00;5.57;;;2.63;;
31537;SDS011;18147;51.952;6.146;2023-04-03T01:06:29;6.25;;;2.22;;
31537;SDS011;18147;51.952;6.146;2023-04-03T01:09:07;3.33;;;2.92;;
31537;SDS011;18147;51.952;6.146;2023-04-03T01:11:32;8.35;;;2.42;;
31537;SDS011;18147;51.952;6.146;2023-04-03T01:13:59;7.03;;;2.50;;
31537;SDS011;18147;51.952;6.146;2023-04-03T01:16:30;6.38;;;2.13;;
31537;SDS011;18147;51.952;6.146;2023-04-03T01:18:57;10.38;;;2.70;;
31537;SDS011;18147;51.952;6.146;2023-04-03T01:26:35;4.78;;;2.83;;
31537;SDS011;18147;51.952;6.146;2023-04-03T01:29:01;8.23;;;2.65;;
31537;SDS011;18147;51.952;6.146;2023-04-03T01:31:31;5.35;;;2.42;;
31537;SDS011;18147;51.952;6.146;2023-04-03T01:34:25;4.80;;;2.10;;
31537;SDS011;18147;51.952;6.146;2023-04-03T01:36:52;3.47;;;2.22;;
31537;SDS011;18147;51.952;6.146;2023-04-03T01:39:18;10.60;;;2.33;;
31537;SDS011;18147;51.952;6.146;2023-04-03T01:41:45;4.28;;;2.45;;
31537;SDS011;18147;51.952;6.146;2023-04-03T01:44:30;6.80;;;2.30;;
31537;SDS011;18147;51.952;6.146;2023-04-03T01:46:55;4.18;;;2.45;;
31537;SDS011;18147;51.952;6.146;2023-04-03T01:49:27;7.35;;;2.95;;
31537;SDS011;18147;51.952;6.146;2023-04-03T01:51:53;8.60;;;2.47;;
31537;SDS011;18147;51.952;6.146;2023-04-03T01:54:18;4.47;;;2.47;;
31537;SDS011;18147;51.952;6.146;2023-04-03T01:56:44;5.43;;;2.00;;
31537;SDS011;18147;51.952;6.146;2023-04-03T01:59:10;13.13;;;2.80;;
31537;SDS011;18147;51.952;6.146;2023-04-03T02:01:35;9.80;;;2.38;;
31537;SDS011;18147;51.952;6.146;2023-04-03T02:04:01;12.98;;;3.28;;
31537;SDS011;18147;51.952;6.146;2023-04-03T02:06:26;7.45;;;2.25;;
31537;SDS011;18147;51.952;6.146;2023-04-03T02:08:52;5.72;;;2.63;;
31537;SDS011;18147;51.952;6.146;2023-04-03T02:11:18;4.88;;;2.70;;
31537;SDS011;18147;51.952;6.146;2023-04-03T02:13:43;8.27;;;2.20;;
31537;SDS011;18147;51.952;6.146;2023-04-03T02:16:09;5.32;;;2.63;;
31537;SDS011;18147;51.952;6.146;2023-04-03T02:18:36;5.03;;;2.50;;
31537;SDS011;18147;51.952;6.146;2023-04-03T02:21:03;6.90;;;2.58;;
31537;SDS011;18147;51.952;6.146;2023-04-03T02:23:28;12.15;;;3.00;;
31537;SDS011;18147;51.952;6.146;2023-04-03T02:26:02;9.80;;;4.20;;
31537;SDS011;18147;51.952;6.146;2023-04-03T02:28:34;6.78;;;2.83;;
31537;SDS011;18147;51.952;6.146;2023-04-03T02:31:01;6.47;;;2.72;;
31537;SDS011;18147;51.952;6.146;2023-04-03T02:33:28;6.72;;;2.72;;
31537;SDS011;18147;51.952;6.146;2023-04-03T02:35:54;8.55;;;4.15;;
31537;SDS011;18147;51.952;6.146;2023-04-03T02:38:21;13.63;;;2.85;;
31537;SDS011;18147;51.952;6.146;2023-04-03T02:40:48;9.77;;;3.03;;
31537;SDS011;18147;51.952;6.146;2023-04-03T02:43:13;8.25;;;3.03;;
31537;SDS011;18147;51.952;6.146;2023-04-03T02:45:39;6.65;;;2.42;;
31537;SDS011;18147;51.952;6.146;2023-04-03T02:48:05;4.72;;;2.30;;
31537;SDS011;18147;51.952;6.146;2023-04-03T02:50:43;10.30;;;2.45;;
31537;SDS011;18147;51.952;6.146;2023-04-03T02:53:08;6.97;;;3.45;;
31537;SDS011;18147;51.952;6.146;2023-04-03T02:55:34;6.78;;;3.03;;
31537;SDS011;18147;51.952;6.146;2023-04-03T02:58:00;7.68;;;2.90;;
31537;SDS011;18147;51.952;6.146;2023-04-03T03:00:25;6.50;;;2.78;;
31537;SDS011;18147;51.952;6.146;2023-04-03T03:02:51;6.78;;;3.10;;
31537;SDS011;18147;51.952;6.146;2023-04-03T03:05:16;5.47;;;2.80;;
31537;SDS011;18147;51.952;6.146;2023-04-03T03:07:42;8.15;;;3.25;;
31537;SDS011;18147;51.952;6.146;2023-04-03T03:10:08;10.20;;;2.90;;
31537;SDS011;18147;51.952;6.146;2023-04-03T03:12:34;7.70;;;3.08;;
31537;SDS011;18147;51.952;6.146;2023-04-03T03:15:00;6.18;;;2.75;;
31537;SDS011;18147;51.952;6.146;2023-04-03T03:17:25;4.20;;;2.67;;
31537;SDS011;18147;51.952;6.146;2023-04-03T03:19:51;12.52;;;3.72;;
31537;SDS011;18147;51.952;6.146;2023-04-03T03:22:16;5.57;;;2.58;;
31537;SDS011;18147;51.952;6.146;2023-04-03T03:24:42;8.88;;;2.85;;
31537;SDS011;18147;51.952;6.146;2023-04-03T03:27:08;10.85;;;3.28;;
31537;SDS011;18147;51.952;6.146;2023-04-03T03:29:46;10.30;;;2.55;;
31537;SDS011;18147;51.952;6.146;2023-04-03T03:32:12;13.20;;;3.38;;
31537;SDS011;18147;51.952;6.146;2023-04-03T03:34:50;10.95;;;2.97;;
31537;SDS011;18147;51.952;6.146;2023-04-03T03:37:16;9.18;;;3.08;;
31537;SDS011;18147;51.952;6.146;2023-04-03T03:39:42;7.05;;;2.75;;
31537;SDS011;18147;51.952;6.146;2023-04-03T03:42:07;8.25;;;2.75;;
31537;SDS011;18147;51.952;6.146;2023-04-03T03:44:33;17.08;;;3.17;;
31537;SDS011;18147;51.952;6.146;2023-04-03T03:46:58;5.50;;;2.70;;
31537;SDS011;18147;51.952;6.146;2023-04-03T03:49:30;8.75;;;2.60;;
31537;SDS011;18147;51.952;6.146;2023-04-03T03:51:59;11.20;;;3.33;;
31537;SDS011;18147;51.952;6.146;2023-04-03T03:54:25;8.60;;;3.17;;
31537;SDS011;18147;51.952;6.146;2023-04-03T03:56:51;14.70;;;2.95;;
31537;SDS011;18147;51.952;6.146;2023-04-03T03:59:16;7.30;;;3.47;;
31537;SDS011;18147;51.952;6.146;2023-04-03T04:01:43;10.60;;;3.40;;
31537;SDS011;18147;51.952;6.146;2023-04-03T04:04:08;7.60;;;2.85;;
31537;SDS011;18147;51.952;6.146;2023-04-03T04:06:40;7.47;;;3.25;;
31537;SDS011;18147;51.952;6.146;2023-04-03T04:12:24;13.82;;;7.05;;
31537;SDS011;18147;51.952;6.146;2023-04-03T04:14:49;13.52;;;4.03;;
31537;SDS011;18147;51.952;6.146;2023-04-03T04:17:15;5.63;;;3.38;;
31537;SDS011;18147;51.952;6.146;2023-04-03T04:19:41;10.23;;;3.50;;
31537;SDS011;18147;51.952;6.146;2023-04-03T04:22:06;7.10;;;3.33;;
31537;SDS011;18147;51.952;6.146;2023-04-03T04:24:35;8.45;;;2.72;;
31537;SDS011;18147;51.952;6.146;2023-04-03T04:27:01;9.63;;;3.22;;
31537;SDS011;18147;51.952;6.146;2023-04-03T04:29:29;9.32;;;2.97;;
31537;SDS011;18147;51.952;6.146;2023-04-03T04:31:54;4.68;;;2.92;;
31537;SDS011;18147;51.952;6.146;2023-04-03T04:34:21;7.00;;;3.10;;
31537;SDS011;18147;51.952;6.146;2023-04-03T04:36:46;12.77;;;3.28;;
31537;SDS011;18147;51.952;6.146;2023-04-03T04:39:12;9.13;;;3.22;;
31537;SDS011;18147;51.952;6.146;2023-04-03T04:41:38;9.85;;;3.03;;
31537;SDS011;18147;51.952;6.146;2023-04-03T04:44:11;11.27;;;3.28;;
31537;SDS011;18147;51.952;6.146;2023-04-03T04:46:37;6.03;;;2.58;;
31537;SDS011;18147;51.952;6.146;2023-04-03T04:49:13;5.07;;;2.80;;
31537;SDS011;18147;51.952;6.146;2023-04-03T04:51:44;7.57;;;3.10;;
31537;SDS011;18147;51.952;6.146;2023-04-03T04:54:11;7.53;;;2.60;;
31537;SDS011;18147;51.952;6.146;2023-04-03T04:56:37;7.43;;;3.03;;
31537;SDS011;18147;51.952;6.146;2023-04-03T04:59:03;15.80;;;3.03;;
31537;SDS011;18147;51.952;6.146;2023-04-03T05:01:44;13.30;;;2.88;;
31537;SDS011;18147;51.952;6.146;2023-04-03T05:04:21;11.32;;;3.20;;
31537;SDS011;18147;51.952;6.146;2023-04-03T05:06:51;11.98;;;2.90;;
31537;SDS011;18147;51.952;6.146;2023-04-03T05:09:21;5.88;;;3.15;;
31537;SDS011;18147;51.952;6.146;2023-04-03T05:11:48;8.65;;;3.42;;
31537;SDS011;18147;51.952;6.146;2023-04-03T05:14:16;7.20;;;3.10;;
31537;SDS011;18147;51.952;6.146;2023-04-03T05:16:42;9.23;;;3.50;;
31537;SDS011;18147;51.952;6.146;2023-04-03T05:19:07;8.43;;;2.85;;
31537;SDS011;18147;51.952;6.146;2023-04-03T05:21:34;10.13;;;2.80;;
31537;SDS011;18147;51.952;6.146;2023-04-03T05:24:04;16.02;;;3.28;;
31537;SDS011;18147;51.952;6.146;2023-04-03T05:26:32;9.15;;;2.72;;
31537;SDS011;18147;51.952;6.146;2023-04-03T05:28:59;5.10;;;2.85;;
31537;SDS011;18147;51.952;6.146;2023-04-03T05:31:31;10.98;;;3.65;;
31537;SDS011;18147;51.952;6.146;2023-04-03T05:33:57;10.75;;;3.55;;
31537;SDS011;18147;51.952;6.146;2023-04-03T05:36:24;8.57;;;4.20;;
31537;SDS011;18147;51.952;6.146;2023-04-03T05:39:00;9.35;;;3.65;;
31537;SDS011;18147;51.952;6.146;2023-04-03T05:41:26;8.38;;;3.47;;
31537;SDS011;18147;51.952;6.146;2023-04-03T05:43:52;8.35;;;3.13;;
31537;SDS011;18147;51.952;6.146;2023-04-03T05:46:24;9.45;;;2.47;;
31537;SDS011;18147;51.952;6.146;2023-04-03T05:51:25;5.45;;;2.78;;
31537;SDS011;18147;51.952;6.146;2023-04-03T05:54:09;10.52;;;2.58;;
31537;SDS011;18147;51.952;6.146;2023-04-03T05:59:26;5.97;;;2.83;;
31537;SDS011;18147;51.952;6.146;2023-04-03T06:01:54;5.72;;;2.63;;
31537;SDS011;18147;51.952;6.146;2023-04-03T06:04:20;5.93;;;2.67;;
31537;SDS011;18147;51.952;6.146;2023-04-03T06:09:14;11.27;;;2.92;;
31537;SDS011;18147;51.952;6.146;2023-04-03T06:12:11;10.00;;;2.90;;
31537;SDS011;18147;51.952;6.146;2023-04-03T06:14:37;7.50;;;2.85;;
31537;SDS011;18147;51.952;6.146;2023-04-03T06:17:02;18.52;;;2.92;;
31537;SDS011;18147;51.952;6.146;2023-04-03T06:19:28;5.57;;;2.72;;
31537;SDS011;18147;51.952;6.146;2023-04-03T06:21:55;11.32;;;2.13;;
31537;SDS011;18147;51.952;6.146;2023-04-03T06:24:22;10.50;;;2.83;;
31537;SDS011;18147;51.952;6.146;2023-04-03T06:26:50;13.07;;;3.80;;
31537;SDS011;18147;51.952;6.146;2023-04-03T06:29:16;6.80;;;2.15;;
31537;SDS011;18147;51.952;6.146;2023-04-03T06:31:43;11.57;;;2.75;;
31537;SDS011;18147;51.952;6.146;2023-04-03T06:34:08;6.97;;;2.50;;
31537;SDS011;18147;51.952;6.146;2023-04-03T06:36:34;7.38;;;2.50;;
31537;SDS011;18147;51.952;6.146;2023-04-03T06:39:00;4.70;;;2.50;;
31537;SDS011;18147;51.952;6.146;2023-04-03T06:41:27;9.73;;;2.50;;
31537;SDS011;18147;51.952;6.146;2023-04-03T06:43:52;5.35;;;2.20;;
31537;SDS011;18147;51.952;6.146;2023-04-03T06:46:27;7.28;;;1.98;;
31537;SDS011;18147;51.952;6.146;2023-04-03T06:48:53;4.75;;;1.80;;
31537;SDS011;18147;51.952;6.146;2023-04-03T06:51:32;9.45;;;2.58;;
31537;SDS011;18147;51.952;6.146;2023-04-03T06:54:06;8.43;;;2.10;;
31537;SDS011;18147;51.952;6.146;2023-04-03T06:56:51;6.75;;;2.50;;
31537;SDS011;18147;51.952;6.146;2023-04-03T06:59:17;4.40;;;2.20;;
31537;SDS011;18147;51.952;6.146;2023-04-03T07:01:49;5.72;;;2.00;;
31537;SDS011;18147;51.952;6.146;2023-04-03T07:04:15;8.23;;;2.40;;
31537;SDS011;18147;51.952;6.146;2023-04-03T07:06:41;7.40;;;2.10;;
31537;SDS011;18147;51.952;6.146;2023-04-03T07:09:08;6.10;;;2.17;;
31537;SDS011;18147;51.952;6.146;2023-04-03T07:11:34;8.88;;;2.30;;
31537;SDS011;18147;51.952;6.146;2023-04-03T07:14:01;8.25;;;1.95;;
31537;SDS011;18147;51.952;6.146;2023-04-03T07:16:27;9.65;;;2.35;;
31537;SDS011;18147;51.952;6.146;2023-04-03T07:18:53;5.78;;;1.67;;
31537;SDS011;18147;51.952;6.146;2023-04-03T07:21:30;11.02;;;2.70;;
31537;SDS011;18147;51.952;6.146;2023-04-03T07:23:56;4.50;;;2.00;;
31537;SDS011;18147;51.952;6.146;2023-04-03T07:26:22;5.20;;;2.10;;
31537;SDS011;18147;51.952;6.146;2023-04-03T07:28:49;5.32;;;1.77;;
31537;SDS011;18147;51.952;6.146;2023-04-03T07:31:15;6.60;;;2.20;;
31537;SDS011;18147;51.952;6.146;2023-04-03T07:33:42;6.82;;;2.00;;
31537;SDS011;18147;51.952;6.146;2023-04-03T07:36:21;3.20;;;1.88;;
31537;SDS011;18147;51.952;6.146;2023-04-03T07:38:48;4.75;;;1.55;;
31537;SDS011;18147;51.952;6.146;2023-04-03T07:41:14;12.95;;;2.00;;
31537;SDS011;18147;51.952;6.146;2023-04-03T07:43:43;5.57;;;1.88;;
31537;SDS011;18147;51.952;6.146;2023-04-03T07:46:08;7.20;;;1.90;;
31537;SDS011;18147;51.952;6.146;2023-04-03T07:48:35;3.30;;;1.83;;
31537;SDS011;18147;51.952;6.146;2023-04-03T07:51:01;7.20;;;1.75;;
31537;SDS011;18147;51.952;6.146;2023-04-03T07:53:27;13.68;;;2.88;;
31537;SDS011;18147;51.952;6.146;2023-04-03T07:55:53;4.75;;;1.80;;
31537;SDS011;18147;51.952;6.146;2023-04-03T07:58:21;8.90;;;2.60;;
31537;SDS011;18147;51.952;6.146;2023-04-03T08:00:47;7.30;;;1.80;;
31537;SDS011;18147;51.952;6.146;2023-04-03T08:03:14;2.38;;;1.48;;
31537;SDS011;18147;51.952;6.146;2023-04-03T08:05:44;5.38;;;2.25;;
31537;SDS011;18147;51.952;6.146;2023-04-03T08:08:12;7.13;;;1.98;;
31537;SDS011;18147;51.952;6.146;2023-04-03T08:10:39;5.18;;;1.73;;
31537;SDS011;18147;51.952;6.146;2023-04-03T08:13:05;7.40;;;2.58;;
31537;SDS011;18147;51.952;6.146;2023-04-03T08:15:31;6.50;;;1.58;;
31537;SDS011;18147;51.952;6.146;2023-04-03T08:17:58;4.63;;;1.70;;
31537;SDS011;18147;51.952;6.146;2023-04-03T08:20:30;3.25;;;1.35;;
31537;SDS011;18147;51.952;6.146;2023-04-03T08:22:56;3.97;;;1.37;;
31537;SDS011;18147;51.952;6.146;2023-04-03T08:25:21;5.03;;;1.42;;
31537;SDS011;18147;51.952;6.146;2023-04-03T08:27:47;4.20;;;1.23;;
31537;SDS011;18147;51.952;6.146;2023-04-03T08:30:13;7.65;;;1.20;;
31537;SDS011;18147;51.952;6.146;2023-04-03T08:32:39;3.78;;;1.38;;
31537;SDS011;18147;51.952;6.146;2023-04-03T08:35:06;3.60;;;1.73;;
31537;SDS011;18147;51.952;6.146;2023-04-03T08:37:34;3.05;;;1.20;;
31537;SDS011;18147;51.952;6.146;2023-04-03T08:40:01;6.28;;;1.63;;
31537;SDS011;18147;51.952;6.146;2023-04-03T08:45:13;2.22;;;0.98;;
31537;SDS011;18147;51.952;6.146;2023-04-03T08:50:48;1.88;;;0.90;;
31537;SDS011;18147;51.952;6.146;2023-04-03T08:53:19;0.73;;;0.70;;
31537;SDS011;18147;51.952;6.146;2023-04-03T08:55:51;2.92;;;1.10;;
31537;SDS011;18147;51.952;6.146;2023-04-03T08:58:21;8.63;;;1.40;;
31537;SDS011;18147;51.952;6.146;2023-04-03T09:01:07;3.00;;;1.63;;
31537;SDS011;18147;51.952;6.146;2023-04-03T09:03:44;1.17;;;1.08;;
31537;SDS011;18147;51.952;6.146;2023-04-03T09:06:13;4.53;;;1.30;;
31537;SDS011;18147;51.952;6.146;2023-04-03T09:11:48;2.90;;;1.05;;
31537;SDS011;18147;51.952;6.146;2023-04-03T09:19:41;2.45;;;1.00;;
31537;SDS011;18147;51.952;6.146;2023-04-03T09:22:17;1.27;;;0.85;;
31537;SDS011;18147;51.952;6.146;2023-04-03T09:24:47;1.58;;;0.70;;
31537;SDS011;18147;51.952;6.146;2023-04-03T09:27:21;2.42;;;0.80;;
31537;SDS011;18147;51.952;6.146;2023-04-03T09:29:46;2.67;;;0.60;;
31537;SDS011;18147;51.952;6.146;2023-04-03T09:32:24;0.98;;;0.85;;
31537;SDS011;18147;51.952;6.146;2023-04-03T09:34:59;1.83;;;0.98;;
31537;SDS011;18147;51.952;6.146;2023-04-03T09:37:33;0.82;;;0.63;;
31537;SDS011;18147;51.952;6.146;2023-04-03T09:40:02;0.98;;;0.68;;
31537;SDS011;18147;51.952;6.146;2023-04-03T09:42:30;3.33;;;0.73;;
31537;SDS011;18147;51.952;6.146;2023-04-03T09:44:58;0.95;;;0.70;;
31537;SDS011;18147;51.952;6.146;2023-04-03T09:47:28;3.15;;;0.68;;
31537;SDS011;18147;51.952;6.146;2023-04-03T09:50:17;1.58;;;0.80;;
31537;SDS011;18147;51.952;6.146;2023-04-03T09:52:47;1.92;;;0.93;;
31537;SDS011;18147;51.952;6.146;2023-04-03T09:55:26;1.95;;;0.88;;
31537;SDS011;18147;51.952;6.146;2023-04-03T09:58:01;1.48;;;0.70;;
31537;SDS011;18147;51.952;6.146;2023-04-03T10:00:35;2.60;;;1.05;;
31537;SDS011;18147;51.952;6.146;2023-04-03T10:03:03;4.03;;;0.82;;
31537;SDS011;18147;51.952;6.146;2023-04-03T10:05:34;4.28;;;0.65;;
31537;SDS011;18147;51.952;6.146;2023-04-03T10:08:10;1.10;;;0.85;;
31537;SDS011;18147;51.952;6.146;2023-04-03T10:10:45;1.65;;;0.90;;
31537;SDS011;18147;51.952;6.146;2023-04-03T10:13:13;2.00;;;0.73;;
31537;SDS011;18147;51.952;6.146;2023-04-03T10:15:43;2.67;;;0.90;;
31537;SDS011;18147;51.952;6.146;2023-04-03T10:20:52;2.65;;;0.70;;
31537;SDS011;18147;51.952;6.146;2023-04-03T10:23:32;2.70;;;0.73;;
31537;SDS011;18147;51.952;6.146;2023-04-03T10:26:13;2.35;;;0.75;;
31537;SDS011;18147;51.952;6.146;2023-04-03T10:34:43;1.50;;;0.70;;
31537;SDS011;18147;51.952;6.146;2023-04-03T10:43:21;2.28;;;0.60;;
31537;SDS011;18147;51.952;6.146;2023-04-03T10:53:55;2.30;;;0.80;;
31537;SDS011;18147;51.952;6.146;2023-04-03T10:56:48;2.42;;;0.90;;
31537;SDS011;18147;51.952;6.146;2023-04-03T10:59:32;3.25;;;0.70;;
31537;SDS011;18147;51.952;6.146;2023-04-03T11:05:34;2.47;;;1.10;;
31537;SDS011;18147;51.952;6.146;2023-04-03T11:11:26;1.73;;;0.70;;
31537;SDS011;18147;51.952;6.146;2023-04-03T11:14:01;2.38;;;0.70;;
31537;SDS011;18147;51.952;6.146;2023-04-03T11:16:31;3.63;;;1.00;;
31537;SDS011;18147;51.952;6.146;2023-04-03T11:19:11;4.72;;;1.13;;
31537;SDS011;18147;51.952;6.146;2023-04-03T11:22:42;2.28;;;0.93;;
31537;SDS011;18147;51.952;6.146;2023-04-03T11:24:52;1.42;;;0.88;;
31537;SDS011;18147;51.952;6.146;2023-04-03T11:27:27;1.75;;;0.85;;
31537;SDS011;18147;51.952;6.146;2023-04-03T11:30:24;1.02;;;0.50;;
31537;SDS011;18147;51.952;6.146;2023-04-03T11:36:09;1.55;;;1.10;;
31537;SDS011;18147;51.952;6.146;2023-04-03T11:38:43;2.92;;;1.00;;
31537;SDS011;18147;51.952;6.146;2023-04-03T11:41:11;2.35;;;1.20;;
31537;SDS011;18147;51.952;6.146;2023-04-03T11:43:42;2.85;;;0.90;;
31537;SDS011;18147;51.952;6.146;2023-04-03T11:46:49;2.97;;;0.75;;
31537;SDS011;18147;51.952;6.146;2023-04-03T11:57:46;1.67;;;1.00;;
31537;SDS011;18147;51.952;6.146;2023-04-03T12:14:02;1.63;;;1.08;;
31537;SDS011;18147;51.952;6.146;2023-04-03T12:26:48;4.65;;;1.50;;
31537;SDS011;18147;51.952;6.146;2023-04-03T12:37:48;2.95;;;1.08;;
31537;SDS011;18147;51.952;6.146;2023-04-03T12:45:52;4.03;;;1.42;;
31537;SDS011;18147;51.952;6.146;2023-04-03T12:48:27;2.80;;;1.45;;
31537;SDS011;18147;51.952;6.146;2023-04-03T12:50:55;4.47;;;1.00;;
31537;SDS011;18147;51.952;6.146;2023-04-03T12:53:26;6.00;;;1.02;;
31537;SDS011;18147;51.952;6.146;2023-04-03T12:55:55;2.95;;;1.00;;
31537;SDS011;18147;51.952;6.146;2023-04-03T12:58:23;4.72;;;1.33;;
31537;SDS011;18147;51.952;6.146;2023-04-03T13:01:26;2.13;;;1.10;;
31537;SDS011;18147;51.952;6.146;2023-04-03T13:03:52;2.60;;;1.33;;
31537;SDS011;18147;51.952;6.146;2023-04-03T13:06:24;2.90;;;1.13;;
31537;SDS011;18147;51.952;6.146;2023-04-03T13:08:57;3.22;;;1.38;;
31537;SDS011;18147;51.952;6.146;2023-04-03T13:14:02;6.03;;;1.13;;
31537;SDS011;18147;51.952;6.146;2023-04-03T13:16:31;5.07;;;1.38;;
31537;SDS011;18147;51.952;6.146;2023-04-03T13:18:57;2.13;;;1.33;;
31537;SDS011;18147;51.952;6.146;2023-04-03T13:21:27;4.38;;;1.25;;
31537;SDS011;18147;51.952;6.146;2023-04-03T13:23:56;1.45;;;1.10;;
31537;SDS011;18147;51.952;6.146;2023-04-03T13:26:26;2.05;;;1.27;;
31537;SDS011;18147;51.952;6.146;2023-04-03T13:28:55;5.20;;;1.38;;
31537;SDS011;18147;51.952;6.146;2023-04-03T13:34:19;2.90;;;1.10;;
31537;SDS011;18147;51.952;6.146;2023-04-03T13:41:45;5.38;;;1.52;;
31537;SDS011;18147;51.952;6.146;2023-04-03T13:46:55;3.47;;;1.27;;
31537;SDS011;18147;51.952;6.146;2023-04-03T13:51:51;3.22;;;1.33;;
31537;SDS011;18147;51.952;6.146;2023-04-03T13:54:18;4.30;;;1.10;;
31537;SDS011;18147;51.952;6.146;2023-04-03T13:56:52;3.80;;;1.40;;
31537;SDS011;18147;51.952;6.146;2023-04-03T14:01:50;4.68;;;1.23;;
31537;SDS011;18147;51.952;6.146;2023-04-03T14:04:23;2.22;;;1.20;;
31537;SDS011;18147;51.952;6.146;2023-04-03T14:06:52;3.47;;;1.35;;
31537;SDS011;18147;51.952;6.146;2023-04-03T14:09:20;4.20;;;1.33;;
31537;SDS011;18147;51.952;6.146;2023-04-03T14:11:48;3.83;;;1.20;;
31537;SDS011;18147;51.952;6.146;2023-04-03T14:14:20;1.98;;;1.63;;
31537;SDS011;18147;51.952;6.146;2023-04-03T14:16:51;2.25;;;0.90;;
31537;SDS011;18147;51.952;6.146;2023-04-03T14:19:22;2.38;;;1.40;;
31537;SDS011;18147;51.952;6.146;2023-04-03T14:21:50;6.20;;;1.63;;
31537;SDS011;18147;51.952;6.146;2023-04-03T14:24:17;2.70;;;1.10;;
31537;SDS011;18147;51.952;6.146;2023-04-03T14:26:44;3.10;;;1.60;;
31537;SDS011;18147;51.952;6.146;2023-04-03T14:29:11;2.40;;;1.30;;
31537;SDS011;18147;51.952;6.146;2023-04-03T14:31:38;4.75;;;1.45;;
31537;SDS011;18147;51.952;6.146;2023-04-03T14:34:04;1.38;;;1.00;;
31537;SDS011;18147;51.952;6.146;2023-04-03T14:36:30;2.45;;;1.40;;
31537;SDS011;18147;51.952;6.146;2023-04-03T14:38:56;2.15;;;1.20;;
31537;SDS011;18147;51.952;6.146;2023-04-03T14:41:23;3.90;;;1.20;;
31537;SDS011;18147;51.952;6.146;2023-04-03T14:43:50;5.53;;;1.73;;
31537;SDS011;18147;51.952;6.146;2023-04-03T14:46:35;5.07;;;1.20;;
31537;SDS011;18147;51.952;6.146;2023-04-03T14:49:03;6.13;;;2.08;;
31537;SDS011;18147;51.952;6.146;2023-04-03T14:51:37;2.22;;;1.17;;
31537;SDS011;18147;51.952;6.146;2023-04-03T14:54:03;2.92;;;1.67;;
31537;SDS011;18147;51.952;6.146;2023-04-03T14:56:31;2.15;;;1.17;;
31537;SDS011;18147;51.952;6.146;2023-04-03T14:58:57;8.65;;;1.70;;
31537;SDS011;18147;51.952;6.146;2023-04-03T15:01:25;8.35;;;1.52;;
31537;SDS011;18147;51.952;6.146;2023-04-03T15:03:51;2.83;;;1.55;;
31537;SDS011;18147;51.952;6.146;2023-04-03T15:06:16;2.05;;;1.00;;
31537;SDS011;18147;51.952;6.146;2023-04-03T15:08:42;4.97;;;1.35;;
31537;SDS011;18147;51.952;6.146;2023-04-03T15:11:10;3.33;;;1.23;;
31537;SDS011;18147;51.952;6.146;2023-04-03T15:13:36;2.75;;;1.35;;
31537;SDS011;18147;51.952;6.146;2023-04-03T15:16:02;5.40;;;1.63;;
31537;SDS011;18147;51.952;6.146;2023-04-03T15:18:29;3.55;;;1.30;;
31537;SDS011;18147;51.952;6.146;2023-04-03T15:20:57;3.45;;;1.23;;
31537;SDS011;18147;51.952;6.146;2023-04-03T15:23:23;4.38;;;1.40;;
31537;SDS011;18147;51.952;6.146;2023-04-03T15:25:53;2.20;;;1.52;;
31537;SDS011;18147;51.952;6.146;2023-04-03T15:31:14;3.25;;;1.70;;
31537;SDS011;18147;51.952;6.146;2023-04-03T15:33:39;7.57;;;1.48;;
31537;SDS011;18147;51.952;6.146;2023-04-03T15:36:05;7.70;;;1.58;;
31537;SDS011;18147;51.952;6.146;2023-04-03T15:38:31;5.72;;;1.45;;
31537;SDS011;18147;51.952;6.146;2023-04-03T15:40:56;3.85;;;1.58;;
31537;SDS011;18147;51.952;6.146;2023-04-03T15:43:22;7.50;;;1.48;;
31537;SDS011;18147;51.952;6.146;2023-04-03T15:45:48;5.03;;;1.77;;
31537;SDS011;18147;51.952;6.146;2023-04-03T15:48:14;2.28;;;1.15;;
31537;SDS011;18147;51.952;6.146;2023-04-03T15:50:40;6.13;;;1.27;;
31537;SDS011;18147;51.952;6.146;2023-04-03T15:53:07;5.13;;;1.52;;
31537;SDS011;18147;51.952;6.146;2023-04-03T15:55:34;4.50;;;1.30;;
31537;SDS011;18147;51.952;6.146;2023-04-03T15:58:01;3.40;;;2.22;;
31537;SDS011;18147;51.952;6.146;2023-04-03T16:00:26;2.58;;;1.17;;
31537;SDS011;18147;51.952;6.146;2023-04-03T16:02:56;3.42;;;1.50;;
31537;SDS011;18147;51.952;6.146;2023-04-03T16:05:25;2.58;;;1.50;;
31537;SDS011;18147;51.952;6.146;2023-04-03T16:07:50;2.72;;;1.58;;
31537;SDS011;18147;51.952;6.146;2023-04-03T16:10:17;4.07;;;1.25;;
31537;SDS011;18147;51.952;6.146;2023-04-03T16:12:43;3.10;;;1.48;;
31537;SDS011;18147;51.952;6.146;2023-04-03T16:15:09;3.75;;;1.40;;
31537;SDS011;18147;51.952;6.146;2023-04-03T16:17:35;3.63;;;1.42;;
31537;SDS011;18147;51.952;6.146;2023-04-03T16:20:03;4.40;;;1.55;;
31537;SDS011;18147;51.952;6.146;2023-04-03T16:22:29;6.28;;;1.70;;
31537;SDS011;18147;51.952;6.146;2023-04-03T16:24:55;7.30;;;1.60;;
31537;SDS011;18147;51.952;6.146;2023-04-03T16:27:21;3.72;;;1.23;;
31537;SDS011;18147;51.952;6.146;2023-04-03T16:29:46;4.47;;;1.40;;
31537;SDS011;18147;51.952;6.146;2023-04-03T16:32:12;3.17;;;1.40;;
31537;SDS011;18147;51.952;6.146;2023-04-03T16:34:39;3.22;;;1.75;;
31537;SDS011;18147;51.952;6.146;2023-04-03T16:37:05;4.30;;;1.38;;
31537;SDS011;18147;51.952;6.146;2023-04-03T16:39:33;4.72;;;1.25;;
31537;SDS011;18147;51.952;6.146;2023-04-03T16:42:00;1.83;;;0.85;;
31537;SDS011;18147;51.952;6.146;2023-04-03T16:44:25;5.70;;;1.15;;
31537;SDS011;18147;51.952;6.146;2023-04-03T16:46:51;5.40;;;1.65;;
31537;SDS011;18147;51.952;6.146;2023-04-03T16:49:17;5.53;;;1.63;;
31537;SDS011;18147;51.952;6.146;2023-04-03T16:51:42;1.83;;;1.38;;
31537;SDS011;18147;51.952;6.146;2023-04-03T16:54:08;2.15;;;1.17;;
31537;SDS011;18147;51.952;6.146;2023-04-03T16:56:35;5.82;;;1.63;;
31537;SDS011;18147;51.952;6.146;2023-04-03T16:59:01;2.97;;;1.10;;
31537;SDS011;18147;51.952;6.146;2023-04-03T17:01:27;5.47;;;1.20;;
31537;SDS011;18147;51.952;6.146;2023-04-03T17:03:53;4.03;;;1.50;;
31537;SDS011;18147;51.952;6.146;2023-04-03T17:06:19;3.45;;;1.50;;
31537;SDS011;18147;51.952;6.146;2023-04-03T17:08:46;2.17;;;1.13;;